createdAt,value
2023-02-03T00:01:30.338Z,1.82
2023-02-03T00:03:56.924Z,1.81
2023-02-03T00:06:24.092Z,1.73
2023-02-03T00:08:54.379Z,1.70
2023-02-03T00:11:21.143Z,1.75
2023-02-03T00:13:47.744Z,1.79
2023-02-03T00:16:14.362Z,1.79
2023-02-03T00:18:40.927Z,1.72
2023-02-03T00:21:07.640Z,1.75
2023-02-03T00:23:34.315Z,1.82
2023-02-03T00:26:11.972Z,1.80
2023-02-03T00:28:38.767Z,1.90
2023-02-03T00:31:05.565Z,1.82
2023-02-03T00:33:33.828Z,1.83
2023-02-03T00:36:06.213Z,1.94
2023-02-03T00:38:32.899Z,1.88
2023-02-03T00:40:59.470Z,1.92
2023-02-03T00:43:26.407Z,1.91
2023-02-03T00:45:53.010Z,1.94
2023-02-03T00:48:20.706Z,1.97
2023-02-03T00:50:48.175Z,1.98
2023-02-03T00:53:14.822Z,1.84
2023-02-03T00:55:43.307Z,1.87
2023-02-03T00:58:09.919Z,1.92
2023-02-03T01:00:36.496Z,1.96
2023-02-03T01:03:03.466Z,1.96
2023-02-03T01:05:30.337Z,1.95
2023-02-03T01:07:57.001Z,2.02
2023-02-03T01:10:23.732Z,2.05
2023-02-03T01:12:50.397Z,2.11
2023-02-03T01:15:17.143Z,2.11
2023-02-03T01:17:43.707Z,2.12
2023-02-03T01:20:12.381Z,2.09
2023-02-03T01:22:39.315Z,2.04
2023-02-03T01:25:06.620Z,2.01
2023-02-03T01:27:33.773Z,2.14
2023-02-03T01:30:00.406Z,2.16
2023-02-03T01:32:27.555Z,2.23
2023-02-03T01:34:54.177Z,2.14
2023-02-03T01:37:20.904Z,2.24
2023-02-03T01:39:47.493Z,2.26
2023-02-03T01:42:15.799Z,2.22
2023-02-03T01:44:55.162Z,2.23
2023-02-03T01:47:37.772Z,2.28
2023-02-03T01:50:13.452Z,2.30
2023-02-03T01:52:43.348Z,2.36
2023-02-03T01:55:13.882Z,2.31
2023-02-03T01:57:47.458Z,2.33
2023-02-03T02:00:14.815Z,2.36
2023-02-03T02:02:44.948Z,2.37
2023-02-03T02:05:32.782Z,2.38
2023-02-03T02:08:01.974Z,2.40
2023-02-03T02:10:32.545Z,2.38
2023-02-03T02:13:00.596Z,2.33
2023-02-03T02:15:48.746Z,2.40
2023-02-03T02:18:37.141Z,2.32
2023-02-03T02:21:33.083Z,2.34
2023-02-03T02:24:31.843Z,2.30
2023-02-03T02:27:34.284Z,2.22
2023-02-03T02:30:34.501Z,2.23
2023-02-03T02:33:26.572Z,2.07
2023-02-03T02:36:13.659Z,2.15
2023-02-03T02:38:55.595Z,2.10
2023-02-03T02:41:28.480Z,2.07
2023-02-03T02:44:07.853Z,2.00
2023-02-03T02:46:47.375Z,2.06
2023-02-03T02:49:32.064Z,2.08
2023-02-03T02:52:03.147Z,2.06
2023-02-03T02:54:32.131Z,2.05
2023-02-03T02:57:03.350Z,2.07
2023-02-03T02:59:29.946Z,2.08
2023-02-03T03:01:56.550Z,2.11
2023-02-03T03:04:27.467Z,2.16
2023-02-03T03:07:17.420Z,2.21
2023-02-03T03:09:51.032Z,2.23
2023-02-03T03:12:24.067Z,2.27
2023-02-03T03:14:58.489Z,2.26
2023-02-03T03:17:39.456Z,2.20
2023-02-03T03:20:10.696Z,2.23
2023-02-03T03:22:42.758Z,2.15
2023-02-03T03:25:39.624Z,2.20
2023-02-03T03:28:12.385Z,2.25
2023-02-03T03:30:39.494Z,2.12
2023-02-03T03:33:08.426Z,2.07
2023-02-03T03:36:10.282Z,2.18
2023-02-03T03:38:42.603Z,2.18
2023-02-03T03:41:23.129Z,2.16
2023-02-03T03:43:53.172Z,2.15
2023-02-03T03:46:25.529Z,2.21
2023-02-03T03:49:00.108Z,2.26
2023-02-03T03:51:34.058Z,2.34
2023-02-03T03:54:06.005Z,2.25
2023-02-03T03:56:39.402Z,2.25
2023-02-03T03:59:09.035Z,2.29
2023-02-03T04:01:36.896Z,2.33
2023-02-03T04:04:09.393Z,2.31
2023-02-03T04:06:38.860Z,2.44
2023-02-03T04:09:05.666Z,2.40
2023-02-03T04:11:50.751Z,2.39
2023-02-03T04:14:17.907Z,2.40
2023-02-03T04:16:44.500Z,2.34
2023-02-03T04:19:11.067Z,2.33
2023-02-03T04:21:37.656Z,2.40
2023-02-03T04:24:04.453Z,2.41
2023-02-03T04:26:31.036Z,2.36
2023-02-03T04:28:57.598Z,2.39
2023-02-03T04:31:24.294Z,2.42
2023-02-03T04:33:50.925Z,2.39
2023-02-03T04:36:17.533Z,2.50
2023-02-03T04:38:44.107Z,2.45
2023-02-03T04:41:10.701Z,2.47
2023-02-03T04:43:37.323Z,2.49
2023-02-03T04:46:04.052Z,2.56
2023-02-03T04:48:30.690Z,2.45
2023-02-03T04:51:03.354Z,2.48
2023-02-03T04:53:31.260Z,2.54
2023-02-03T04:55:57.946Z,2.54
2023-02-03T04:58:26.366Z,2.62
2023-02-03T05:00:54.724Z,2.68
2023-02-03T05:03:22.588Z,2.66
2023-02-03T05:05:50.963Z,2.72
2023-02-03T05:08:17.591Z,2.76
2023-02-03T05:10:44.179Z,2.75
2023-02-03T05:13:10.971Z,2.80
2023-02-03T05:15:37.544Z,2.81
2023-02-03T05:18:04.183Z,2.78
2023-02-03T05:20:30.764Z,2.79
2023-02-03T05:22:58.730Z,2.79
2023-02-03T05:25:25.327Z,2.79
2023-02-03T05:27:51.965Z,2.84
2023-02-03T05:30:18.853Z,2.80
2023-02-03T05:32:45.542Z,2.83
2023-02-03T05:35:12.151Z,2.77
2023-02-03T05:37:38.724Z,2.83
2023-02-03T05:40:24.337Z,2.87
2023-02-03T05:42:50.938Z,2.84
2023-02-03T05:45:17.759Z,2.81
2023-02-03T05:47:44.326Z,2.88
2023-02-03T05:50:11.001Z,2.93
2023-02-03T05:52:37.677Z,2.88
2023-02-03T05:55:04.599Z,2.86
2023-02-03T05:57:32.348Z,2.96
2023-02-03T05:59:59.082Z,2.99
2023-02-03T06:02:25.666Z,3.02
2023-02-03T06:04:52.244Z,3.02
2023-02-03T06:07:18.861Z,3.09
2023-02-03T06:09:45.462Z,3.10
2023-02-03T06:12:12.139Z,3.03
2023-02-03T06:14:38.728Z,3.14
2023-02-03T06:17:05.343Z,3.20
2023-02-03T06:19:31.982Z,3.20
2023-02-03T06:21:58.587Z,3.26
2023-02-03T06:24:25.161Z,3.22
2023-02-03T06:26:51.774Z,3.29
2023-02-03T06:29:18.388Z,3.28
2023-02-03T06:31:45.119Z,3.28
2023-02-03T06:34:11.878Z,3.27
2023-02-03T06:36:38.481Z,3.32
2023-02-03T06:39:05.120Z,3.36
2023-02-03T06:41:32.862Z,3.33
2023-02-03T06:43:59.440Z,3.37
2023-02-03T06:46:29.902Z,3.38
2023-02-03T06:48:56.684Z,3.36
2023-02-03T06:51:24.920Z,3.41
2023-02-03T06:53:51.869Z,3.39
2023-02-03T06:56:18.471Z,3.41
2023-02-03T06:58:45.158Z,3.39
2023-02-03T07:01:11.817Z,3.42
2023-02-03T07:03:38.402Z,3.46
2023-02-03T07:06:05.276Z,3.49
2023-02-03T07:08:31.892Z,3.46
2023-02-03T07:10:58.456Z,3.47
2023-02-03T07:13:25.130Z,3.46
2023-02-03T07:15:51.949Z,3.55
2023-02-03T07:18:45.227Z,3.57
2023-02-03T07:21:08.265Z,3.62
2023-02-03T07:23:34.905Z,3.62
2023-02-03T07:26:04.541Z,3.56
2023-02-03T07:28:32.023Z,3.55
2023-02-03T07:30:58.731Z,3.65
2023-02-03T07:33:25.407Z,3.64
2023-02-03T07:35:53.495Z,3.61
2023-02-03T07:38:20.124Z,3.56
2023-02-03T07:40:46.789Z,3.52
2023-02-03T07:43:13.630Z,3.50
2023-02-03T07:45:40.571Z,3.61
2023-02-03T07:48:07.228Z,3.45
2023-02-03T07:50:34.382Z,3.59
2023-02-03T07:53:01.585Z,3.60
2023-02-03T07:55:28.848Z,3.70
2023-02-03T07:57:57.097Z,3.80
2023-02-03T08:00:24.343Z,3.82
2023-02-03T08:02:50.960Z,3.86
2023-02-03T08:05:18.789Z,3.94
2023-02-03T08:07:45.891Z,3.98
2023-02-03T08:10:13.918Z,4.04
2023-02-03T08:12:40.522Z,4.15
2023-02-03T08:15:07.573Z,4.18
2023-02-03T08:17:34.203Z,4.18
2023-02-03T08:20:01.058Z,4.08
2023-02-03T08:22:27.804Z,4.14
2023-02-03T08:24:54.438Z,4.09
2023-02-03T08:27:22.790Z,4.18
2023-02-03T08:29:49.711Z,4.23
2023-02-03T08:32:19.843Z,4.23
2023-02-03T08:34:46.531Z,4.28
2023-02-03T08:37:14.978Z,4.27
2023-02-03T08:39:42.042Z,4.33
2023-02-03T08:42:09.355Z,4.29
2023-02-03T08:44:36.077Z,4.27
2023-02-03T08:47:02.987Z,4.32
2023-02-03T08:49:30.983Z,4.28
2023-02-03T08:51:58.745Z,4.32
2023-02-03T08:54:26.295Z,4.40
2023-02-03T08:56:53.489Z,4.42
2023-02-03T08:59:20.294Z,4.42
2023-02-03T09:01:48.571Z,4.42
2023-02-03T09:04:19.766Z,4.42
2023-02-03T09:06:50.256Z,4.45
2023-02-03T09:09:16.909Z,4.40
2023-02-03T09:11:43.982Z,4.42
2023-02-03T09:14:10.896Z,4.39
2023-02-03T09:16:37.811Z,4.43
2023-02-03T09:19:04.489Z,4.49
2023-02-03T09:21:33.290Z,4.47
2023-02-03T09:24:08.945Z,4.46
2023-02-03T09:26:35.644Z,4.52
2023-02-03T09:29:02.285Z,4.51
2023-02-03T09:31:28.918Z,4.51
2023-02-03T09:33:55.631Z,4.54
2023-02-03T09:36:22.232Z,4.54
2023-02-03T09:38:48.815Z,4.60
2023-02-03T09:41:45.413Z,4.63
2023-02-03T09:44:48.955Z,4.63
2023-02-03T09:47:28.819Z,4.60
2023-02-03T09:50:01.923Z,4.60
2023-02-03T09:52:34.500Z,4.65
2023-02-03T09:55:22.769Z,4.68
2023-02-03T09:57:57.146Z,4.68
2023-02-03T10:00:33.014Z,4.73
2023-02-03T10:03:21.848Z,4.78
2023-02-03T10:05:57.617Z,4.82
2023-02-03T10:08:45.943Z,4.82
2023-02-03T10:11:28.978Z,4.81
2023-02-03T10:14:17.073Z,4.89
2023-02-03T10:17:14.816Z,4.84
2023-02-03T10:19:50.641Z,4.83
2023-02-03T10:22:22.194Z,4.84
2023-02-03T10:24:56.943Z,4.89
2023-02-03T10:27:25.122Z,4.97
2023-02-03T10:30:10.844Z,5.07
2023-02-03T10:32:37.857Z,5.04
2023-02-03T10:35:12.425Z,5.01
2023-02-03T10:37:51.698Z,4.99
2023-02-03T10:40:18.399Z,5.05
2023-02-03T10:43:06.827Z,5.02
2023-02-03T10:45:37.733Z,5.00
2023-02-03T10:48:07.240Z,5.03
2023-02-03T10:50:35.492Z,5.09
2023-02-03T10:53:24.334Z,5.00
2023-02-03T10:56:02.443Z,5.11
2023-02-03T10:58:31.838Z,5.11
2023-02-03T11:01:06.919Z,5.14
2023-02-03T11:03:34.422Z,5.22
2023-02-03T11:06:05.700Z,5.27
2023-02-03T11:08:33.612Z,5.25
2023-02-03T11:11:13.947Z,5.29
2023-02-03T11:13:41.163Z,5.21
2023-02-03T11:16:15.755Z,5.22
2023-02-03T11:18:51.136Z,5.27
2023-02-03T11:21:20.345Z,5.33
2023-02-03T11:24:15.886Z,5.29
2023-02-03T11:26:49.670Z,5.36
2023-02-03T11:29:31.500Z,5.38
2023-02-03T11:32:01.924Z,5.46
2023-02-03T11:34:31.522Z,5.45
2023-02-03T11:36:58.215Z,5.38
2023-02-03T11:39:35.497Z,5.38
2023-02-03T11:42:03.073Z,5.41
2023-02-03T11:44:33.992Z,5.35
2023-02-03T11:47:07.727Z,5.32
2023-02-03T11:50:03.779Z,5.38
2023-02-03T11:52:50.410Z,5.36
2023-02-03T11:55:33.124Z,5.38
2023-02-03T11:58:30.913Z,5.31
2023-02-03T12:01:22.885Z,5.35
2023-02-03T12:04:15.613Z,5.35
2023-02-03T12:07:00.507Z,5.31
2023-02-03T12:09:51.232Z,5.38
2023-02-03T12:12:51.210Z,5.32
2023-02-03T12:15:51.680Z,5.38
2023-02-03T12:18:27.023Z,5.43
2023-02-03T12:21:09.561Z,5.49
2023-02-03T12:24:19.633Z,5.45
2023-02-03T12:26:59.924Z,5.48
2023-02-03T12:29:39.029Z,5.52
2023-02-03T12:32:23.724Z,5.56
2023-02-03T12:35:06.014Z,5.54
2023-02-03T12:37:47.883Z,5.55
2023-02-03T12:40:34.666Z,5.60
2023-02-03T12:43:18.056Z,5.56
2023-02-03T12:45:49.900Z,5.62
2023-02-03T12:48:22.778Z,5.61
2023-02-03T12:50:52.376Z,5.62
2023-02-03T12:53:25.011Z,5.72
2023-02-03T12:56:10.822Z,5.71
2023-02-03T12:58:42.257Z,5.73
2023-02-03T13:01:16.230Z,5.72
2023-02-03T13:03:51.879Z,5.71
2023-02-03T13:06:46.128Z,5.71
2023-02-03T13:09:22.639Z,5.71
2023-02-03T13:11:59.082Z,5.67
2023-02-03T13:14:53.250Z,5.72
2023-02-03T13:17:28.096Z,5.71
2023-02-03T13:20:03.210Z,5.69
2023-02-03T13:22:29.900Z,5.72
2023-02-03T13:25:07.693Z,5.69
2023-02-03T13:27:43.036Z,5.70
2023-02-03T13:30:32.730Z,5.68
2023-02-03T13:33:20.855Z,5.64
2023-02-03T13:35:56.704Z,5.65
2023-02-03T13:38:45.341Z,5.63
2023-02-03T13:41:30.871Z,5.57
2023-02-03T13:43:59.168Z,5.53
2023-02-03T13:46:32.805Z,5.55
2023-02-03T13:49:02.278Z,5.51
2023-02-03T13:51:36.047Z,5.44
2023-02-03T13:54:36.446Z,5.47
2023-02-03T13:57:18.825Z,5.42
2023-02-03T13:59:46.061Z,5.40
2023-02-03T14:02:21.436Z,5.38
2023-02-03T14:04:48.066Z,5.34
2023-02-03T14:07:24.710Z,5.24
2023-02-03T14:10:16.951Z,5.17
2023-02-03T14:12:49.495Z,5.11
2023-02-03T14:15:25.301Z,5.14
2023-02-03T14:17:51.897Z,5.03
2023-02-03T14:20:27.700Z,5.07
2023-02-03T14:23:06.487Z,5.08
2023-02-03T14:26:00.170Z,5.00
2023-02-03T14:28:37.962Z,4.96
2023-02-03T14:31:12.621Z,4.95
2023-02-03T14:33:48.384Z,4.95
2023-02-03T14:36:40.001Z,4.90
2023-02-03T14:39:18.849Z,4.94
2023-02-03T14:42:22.917Z,4.92
2023-02-03T14:44:59.326Z,4.86
2023-02-03T14:47:48.839Z,4.81
2023-02-03T14:50:26.252Z,4.81
2023-02-03T14:53:10.881Z,4.81
2023-02-03T14:56:00.616Z,4.79
2023-02-03T14:58:34.359Z,4.79
2023-02-03T15:01:04.671Z,4.78
2023-02-03T15:03:31.783Z,4.74
2023-02-03T15:06:04.027Z,4.73
2023-02-03T15:08:48.344Z,4.74
2023-02-03T15:11:31.060Z,4.69
2023-02-03T15:14:24.452Z,4.74
2023-02-03T15:16:56.105Z,4.72
2023-02-03T15:19:25.800Z,4.73
2023-02-03T15:21:52.656Z,4.74
2023-02-03T15:24:22.950Z,4.73
2023-02-03T15:26:55.292Z,4.82
2023-02-03T15:29:26.694Z,4.80
2023-02-03T15:32:17.750Z,4.85
2023-02-03T15:34:49.527Z,4.91
2023-02-03T15:37:28.625Z,4.96
2023-02-03T15:40:05.842Z,5.00
2023-02-03T15:42:53.530Z,4.95
2023-02-03T15:45:26.092Z,4.97
2023-02-03T15:48:00.266Z,4.99
2023-02-03T15:50:32.474Z,4.99
2023-02-03T15:53:06.378Z,5.02
2023-02-03T15:55:38.084Z,5.04
2023-02-03T15:58:05.469Z,5.11
2023-02-03T16:00:38.249Z,5.13
2023-02-03T16:03:15.126Z,5.17
2023-02-03T16:05:44.798Z,5.15
2023-02-03T16:08:37.527Z,5.09
2023-02-03T16:11:27.195Z,5.11
2023-02-03T16:13:57.348Z,5.09
2023-02-03T16:16:33.202Z,5.12
2023-02-03T16:19:13.863Z,5.12
2023-02-03T16:22:02.159Z,5.04
2023-02-03T16:24:41.090Z,5.00
2023-02-03T16:27:26.154Z,4.95
2023-02-03T16:30:31.437Z,5.02
2023-02-03T16:33:42.397Z,5.00
2023-02-03T16:36:33.148Z,4.96
2023-02-03T16:39:21.505Z,4.84
2023-02-03T16:42:06.928Z,4.81
2023-02-03T16:44:51.891Z,4.74
2023-02-03T16:47:42.837Z,4.70
2023-02-03T16:50:39.709Z,4.56
2023-02-03T16:53:13.599Z,4.48
2023-02-03T16:55:41.165Z,4.39
2023-02-03T16:58:08.785Z,4.32
2023-02-03T17:00:35.409Z,4.27
2023-02-03T17:03:05.197Z,4.23
2023-02-03T17:05:32.158Z,4.19
2023-02-03T17:07:58.937Z,4.13
2023-02-03T17:10:26.487Z,4.14
2023-02-03T17:12:53.109Z,4.13
2023-02-03T17:15:19.688Z,4.10
2023-02-03T17:17:46.255Z,4.19
2023-02-03T17:20:13.080Z,4.24
2023-02-03T17:22:39.663Z,4.17
2023-02-03T17:25:06.609Z,4.23
2023-02-03T17:27:33.333Z,4.26
2023-02-03T17:29:59.973Z,4.29
2023-02-03T17:32:26.550Z,4.26
2023-02-03T17:34:53.167Z,4.32
2023-02-03T17:37:19.777Z,4.30
2023-02-03T17:53:31.712Z,4.59
2023-02-03T17:55:59.239Z,4.59
2023-02-03T17:58:25.790Z,4.64
2023-02-03T18:00:52.414Z,4.63
2023-02-03T18:03:19.036Z,4.64
2023-02-03T18:05:52.483Z,4.61
2023-02-03T18:08:20.549Z,4.61
2023-02-03T18:10:50.917Z,4.66
2023-02-03T18:13:18.307Z,4.73
2023-02-03T18:15:44.959Z,4.72
2023-02-03T18:18:11.651Z,4.69
2023-02-03T18:20:38.299Z,4.75
2023-02-03T18:23:04.904Z,4.67
2023-02-03T18:25:31.644Z,4.72
2023-02-03T18:27:58.339Z,4.73
2023-02-03T18:30:25.027Z,4.67
2023-02-03T18:32:54.936Z,4.60
2023-02-03T18:35:21.697Z,4.62
2023-02-03T18:37:48.309Z,4.68
2023-02-03T18:40:15.145Z,4.68
2023-02-03T18:42:41.762Z,4.65
2023-02-03T18:45:09.102Z,4.45
2023-02-03T18:47:35.935Z,4.35
2023-02-03T18:50:02.532Z,4.31
2023-02-03T18:52:29.098Z,4.33
2023-02-03T18:54:55.689Z,4.35
2023-02-03T18:57:22.963Z,4.36
2023-02-03T18:59:49.744Z,4.31
2023-02-03T19:02:16.506Z,4.32
2023-02-03T19:04:43.495Z,4.31
2023-02-03T19:07:12.350Z,4.34
2023-02-03T19:09:40.058Z,4.32
2023-02-03T19:12:07.865Z,4.32
2023-02-03T19:14:35.240Z,4.29
2023-02-03T19:17:02.199Z,4.22
2023-02-03T19:19:28.973Z,4.12
2023-02-03T19:21:55.638Z,4.07
2023-02-03T19:24:22.202Z,4.06
2023-02-03T19:26:48.784Z,4.02
2023-02-03T19:29:15.721Z,4.04
2023-02-03T19:31:42.363Z,3.98
2023-02-03T19:34:09.061Z,4.01
2023-02-03T19:36:35.730Z,3.96
2023-02-03T19:39:02.292Z,3.83
2023-02-03T19:41:30.840Z,3.83
2023-02-03T19:43:57.400Z,3.88
2023-02-03T19:46:25.573Z,3.82
2023-02-03T19:48:52.204Z,3.85
2023-02-03T19:51:18.818Z,3.83
2023-02-03T19:53:45.383Z,3.91
2023-02-03T19:56:12.539Z,3.78
2023-02-03T19:58:39.346Z,3.83
2023-02-03T20:01:06.157Z,3.83
2023-02-03T20:03:32.821Z,3.80
2023-02-03T20:06:00.999Z,3.77
2023-02-03T20:08:27.943Z,3.78
2023-02-03T20:10:54.634Z,3.75
2023-02-03T20:13:21.298Z,3.74
2023-02-03T20:15:48.042Z,3.74
2023-02-03T20:18:14.710Z,3.71
2023-02-03T20:20:41.753Z,3.80
2023-02-03T20:23:08.533Z,3.79
2023-02-03T20:25:35.120Z,3.66
2023-02-03T20:28:02.687Z,3.76
2023-02-03T20:30:29.836Z,3.74
2023-02-03T20:32:56.709Z,3.73
2023-02-03T20:35:23.974Z,3.73
2023-02-03T20:37:51.379Z,3.73
2023-02-03T20:40:22.502Z,3.81
2023-02-03T20:42:49.885Z,3.74
2023-02-03T20:45:18.563Z,3.80
2023-02-03T20:47:45.540Z,3.76
2023-02-03T20:50:17.250Z,3.73
2023-02-03T20:52:45.384Z,3.65
2023-02-03T20:55:13.829Z,3.73
2023-02-03T20:57:40.950Z,3.78
2023-02-03T21:00:25.866Z,3.72
2023-02-03T21:03:11.847Z,3.72
2023-02-03T21:05:41.871Z,3.74
2023-02-03T21:08:12.557Z,3.75
2023-02-03T21:10:40.864Z,3.77
2023-02-03T21:13:26.494Z,3.89
2023-02-03T21:16:04.128Z,3.93
2023-02-03T21:18:50.794Z,3.84
2023-02-03T21:21:24.804Z,3.78
2023-02-03T21:23:52.659Z,3.77
2023-02-03T21:26:21.846Z,3.77
2023-02-03T21:28:54.424Z,3.85
2023-02-03T21:31:24.755Z,3.83
2023-02-03T21:33:53.327Z,3.88
2023-02-03T21:36:22.847Z,3.87
2023-02-03T21:38:57.537Z,3.91
2023-02-03T21:41:25.499Z,3.89
2023-02-03T21:43:57.210Z,3.85
2023-02-03T21:46:27.235Z,3.89
2023-02-03T21:48:55.816Z,3.92
2023-02-03T21:51:32.167Z,3.98
2023-02-03T21:54:14.024Z,3.99
2023-02-03T21:56:42.114Z,3.94
2023-02-03T21:59:26.064Z,4.08
2023-02-03T22:01:57.688Z,4.13
2023-02-03T22:04:30.922Z,4.16
2023-02-03T22:06:57.406Z,4.17
2023-02-03T22:09:26.167Z,4.12
2023-02-03T22:11:53.511Z,4.06
2023-02-03T22:14:23.615Z,4.11
2023-02-03T22:16:50.805Z,4.11
2023-02-03T22:19:17.727Z,3.99
2023-02-03T22:21:44.847Z,3.92
2023-02-03T22:24:11.885Z,3.84
2023-02-03T22:26:38.676Z,3.89
2023-02-03T22:29:05.729Z,3.96
2023-02-03T22:31:32.864Z,4.05
2023-02-03T22:33:59.592Z,3.97
2023-02-03T22:36:26.226Z,4.01
2023-02-03T22:38:53.084Z,4.03
2023-02-03T22:41:20.973Z,4.07
2023-02-03T22:43:47.857Z,4.01
2023-02-03T22:46:14.617Z,3.96
2023-02-03T22:48:41.307Z,4.00
2023-02-03T22:51:08.051Z,4.11
2023-02-03T22:53:34.966Z,4.08
2023-02-03T22:56:01.663Z,4.16
2023-02-03T22:58:28.248Z,4.11
2023-02-03T23:00:54.874Z,4.06
2023-02-03T23:03:21.727Z,4.11
2023-02-03T23:05:48.358Z,4.14
2023-02-03T23:08:14.974Z,4.19
2023-02-03T23:10:41.565Z,4.22
2023-02-03T23:13:08.266Z,4.16
2023-02-03T23:15:34.954Z,4.14
2023-02-03T23:18:01.556Z,4.09
2023-02-03T23:20:28.478Z,4.12
2023-02-03T23:22:55.181Z,4.08
2023-02-03T23:25:21.776Z,3.94
2023-02-03T23:27:48.445Z,3.81
2023-02-03T23:30:15.953Z,3.75
2023-02-03T23:32:42.597Z,3.78
2023-02-03T23:35:27.608Z,3.66
2023-02-03T23:37:54.471Z,3.60
2023-02-03T23:40:21.219Z,3.59
2023-02-03T23:42:47.799Z,3.67
2023-02-03T23:45:14.445Z,3.73
2023-02-03T23:47:42.804Z,3.83
2023-02-03T23:50:10.997Z,3.73
2023-02-03T23:52:37.687Z,3.74
2023-02-03T23:55:07.099Z,3.72
2023-02-03T23:57:33.857Z,3.65
